createdAt,value
2022-08-05T00:02:51.512Z,14.60
2022-08-05T00:07:00.785Z,14.60
2022-08-05T00:11:34.441Z,14.50
2022-08-05T00:15:55.042Z,14.40
2022-08-05T00:20:06.226Z,14.50
2022-08-05T00:24:19.061Z,14.40
2022-08-05T00:28:33.933Z,14.30
2022-08-05T00:32:44.442Z,14.30
2022-08-05T00:37:10.483Z,14.20
2022-08-05T00:41:52.188Z,14.10
2022-08-05T00:46:00.685Z,14.10
2022-08-05T00:50:12.007Z,13.90
2022-08-05T00:54:22.249Z,13.90
2022-08-05T00:58:37.130Z,13.80
2022-08-05T01:02:46.101Z,13.80
2022-08-05T01:06:56.264Z,13.80
2022-08-05T01:11:11.669Z,13.80
2022-08-05T01:15:36.114Z,13.80
2022-08-05T01:20:01.682Z,13.80
2022-08-05T01:24:33.018Z,13.80
2022-08-05T01:28:48.474Z,13.80
2022-08-05T01:32:58.278Z,13.90
2022-08-05T01:37:18.102Z,13.90
2022-08-05T01:41:38.043Z,13.90
2022-08-05T01:45:56.452Z,13.90
2022-08-05T01:50:08.230Z,13.90
2022-08-05T01:54:27.433Z,13.90
2022-08-05T01:58:44.785Z,13.90
2022-08-05T02:02:59.709Z,13.80
2022-08-05T02:07:12.567Z,13.80
2022-08-05T02:11:42.488Z,13.70
2022-08-05T02:16:03.012Z,13.80
2022-08-05T02:20:20.669Z,13.80
2022-08-05T02:24:37.148Z,13.90
2022-08-05T02:28:47.967Z,13.70
2022-08-05T02:33:00.103Z,13.70
2022-08-05T02:37:12.651Z,13.60
2022-08-05T02:41:22.825Z,13.70
2022-08-05T02:45:52.865Z,13.70
2022-08-05T02:50:03.316Z,13.60
2022-08-05T02:54:35.090Z,13.60
2022-08-05T02:58:44.310Z,13.60
2022-08-05T03:03:00.618Z,13.50
2022-08-05T03:07:17.632Z,13.50
2022-08-05T03:11:54.487Z,13.40
2022-08-05T03:16:06.947Z,13.30
2022-08-05T03:20:17.913Z,13.30
2022-08-05T03:24:30.833Z,13.30
2022-08-05T03:28:41.172Z,13.20
2022-08-05T03:32:50.645Z,13.20
2022-08-05T03:36:59.822Z,13.20
2022-08-05T03:41:11.012Z,13.20
2022-08-05T03:45:23.282Z,13.10
2022-08-05T03:49:51.660Z,13.10
2022-08-05T03:55:51.627Z,13.10
2022-08-05T03:58:38.050Z,13.00
2022-08-05T04:02:58.154Z,12.90
2022-08-05T04:07:08.354Z,13.00
2022-08-05T04:11:17.882Z,12.90
2022-08-05T04:15:33.269Z,12.90
2022-08-05T04:19:54.315Z,12.90
2022-08-05T04:24:06.180Z,12.80
2022-08-05T04:28:17.124Z,12.80
2022-08-05T04:32:31.068Z,12.70
2022-08-05T04:36:49.533Z,12.60
2022-08-05T04:40:58.809Z,12.50
2022-08-05T04:45:08.771Z,12.40
2022-08-05T04:49:24.653Z,12.40
2022-08-05T04:53:48.452Z,12.30
2022-08-05T04:57:57.152Z,12.30
2022-08-05T05:02:36.819Z,12.20
2022-08-05T05:06:40.161Z,12.20
2022-08-05T05:10:56.684Z,12.10
2022-08-05T05:15:10.660Z,12.10
2022-08-05T05:19:23.673Z,12.10
2022-08-05T05:24:02.078Z,12.10
2022-08-05T05:28:06.816Z,12.20
2022-08-05T05:32:16.283Z,12.20
2022-08-05T05:36:28.759Z,12.30
2022-08-05T05:40:39.303Z,12.30
2022-08-05T05:44:53.892Z,12.40
2022-08-05T05:49:23.107Z,12.50
2022-08-05T05:53:32.111Z,12.50
2022-08-05T05:58:02.037Z,12.50
2022-08-05T06:02:14.633Z,12.60
2022-08-05T06:06:27.926Z,12.60
2022-08-05T06:10:49.024Z,12.60
2022-08-05T06:15:02.460Z,12.70
2022-08-05T06:19:12.677Z,12.90
2022-08-05T06:23:43.633Z,13.00
2022-08-05T06:28:12.248Z,13.20
2022-08-05T06:32:28.716Z,13.30
2022-08-05T06:36:57.566Z,13.50
2022-08-05T06:41:08.391Z,13.60
2022-08-05T06:45:21.516Z,13.70
2022-08-05T06:50:00.863Z,13.90
2022-08-05T06:54:18.894Z,14.00
2022-08-05T06:58:36.247Z,14.10
2022-08-05T07:02:46.209Z,14.30
2022-08-05T07:06:54.920Z,14.40
2022-08-05T07:11:08.410Z,14.60
2022-08-05T07:16:00.920Z,14.80
2022-08-05T07:20:32.344Z,15.10
2022-08-05T07:24:43.793Z,15.40
2022-08-05T07:29:02.551Z,15.80
2022-08-05T07:33:16.650Z,16.20
2022-08-05T07:37:29.170Z,16.40
2022-08-05T07:42:14.241Z,16.60
2022-08-05T07:46:24.749Z,16.70
2022-08-05T07:50:34.460Z,16.80
2022-08-05T07:54:49.282Z,16.90
2022-08-05T07:58:59.256Z,17.00
2022-08-05T08:03:15.819Z,17.20
2022-08-05T08:07:25.135Z,17.40
2022-08-05T08:11:47.648Z,17.60
2022-08-05T08:16:35.252Z,17.70
2022-08-05T08:20:59.778Z,17.80
2022-08-05T08:25:03.436Z,18.00
2022-08-05T08:29:45.189Z,18.20
2022-08-05T08:33:41.340Z,18.50
2022-08-05T08:37:51.832Z,18.80
2022-08-05T08:42:07.647Z,19.20
2022-08-05T08:46:33.392Z,19.30
2022-08-05T08:51:07.763Z,19.40
2022-08-05T08:55:19.484Z,19.80
2022-08-05T08:59:41.867Z,19.90
2022-08-05T09:03:57.484Z,20.10
2022-08-05T09:08:09.809Z,20.00
2022-08-05T09:12:30.163Z,19.90
2022-08-05T09:16:40.841Z,20.00
2022-08-05T09:20:57.594Z,20.00
2022-08-05T09:25:13.814Z,20.30
2022-08-05T09:29:48.037Z,20.50
2022-08-05T09:33:59.777Z,20.90
2022-08-05T09:38:17.208Z,21.30
2022-08-05T09:42:28.874Z,21.40
2022-08-05T09:46:39.140Z,21.50
2022-08-05T09:51:02.430Z,21.60
2022-08-05T09:55:56.992Z,22.30
2022-08-05T09:59:42.252Z,22.20
2022-08-05T10:04:03.544Z,22.40
2022-08-05T10:08:37.784Z,22.50
2022-08-05T10:12:49.768Z,22.80
2022-08-05T10:17:36.835Z,22.60
2022-08-05T10:21:44.285Z,22.80
2022-08-05T10:25:53.366Z,22.70
2022-08-05T10:30:06.359Z,22.50
2022-08-05T10:34:31.235Z,22.60
2022-08-05T10:38:48.290Z,22.60
2022-08-05T10:43:04.537Z,22.70
2022-08-05T10:47:26.093Z,22.40
2022-08-05T10:51:53.099Z,22.60
2022-08-05T10:56:21.321Z,22.70
2022-08-05T11:00:34.363Z,22.90
2022-08-05T11:04:56.851Z,23.10
2022-08-05T11:09:24.478Z,23.10
2022-08-05T11:13:54.847Z,23.10
2022-08-05T11:18:23.885Z,23.20
2022-08-05T11:22:50.109Z,23.40
2022-08-05T11:27:51.138Z,23.20
2022-08-05T11:32:26.151Z,23.10
2022-08-05T11:36:52.948Z,23.10
2022-08-05T11:41:34.293Z,23.10
2022-08-05T11:46:32.110Z,23.00
2022-08-05T11:50:04.235Z,23.30
2022-08-05T11:54:14.882Z,23.20
2022-08-05T11:58:31.483Z,23.40
2022-08-05T12:02:40.369Z,23.90
2022-08-05T12:06:55.174Z,24.30
2022-08-05T12:11:06.361Z,24.20
2022-08-05T12:15:35.689Z,23.60
2022-08-05T12:20:16.713Z,23.50
2022-08-05T12:24:20.727Z,23.70
2022-08-05T12:28:37.636Z,23.80
2022-08-05T12:32:51.285Z,23.90
2022-08-05T12:37:07.641Z,24.00
2022-08-05T12:41:18.456Z,24.30
2022-08-05T12:45:42.591Z,24.30
2022-08-05T12:50:04.530Z,24.30
2022-08-05T12:54:23.558Z,24.60
2022-08-05T12:58:50.015Z,24.70
2022-08-05T13:03:03.317Z,24.30
2022-08-05T13:07:41.367Z,24.20
2022-08-05T13:12:03.076Z,24.20
2022-08-05T13:16:17.633Z,24.80
2022-08-05T13:20:35.576Z,24.70
2022-08-05T13:24:57.429Z,24.80
2022-08-05T13:29:06.979Z,24.80
2022-08-05T13:34:24.949Z,24.70
2022-08-05T13:37:46.112Z,24.70
2022-08-05T13:42:04.775Z,24.90
2022-08-05T13:46:15.081Z,25.10
2022-08-05T13:50:26.510Z,25.10
2022-08-05T13:54:35.855Z,25.30
2022-08-05T13:58:44.550Z,25.10
2022-08-05T14:03:02.291Z,24.80
2022-08-05T14:07:26.492Z,24.70
2022-08-05T14:12:04.471Z,24.90
2022-08-05T14:16:11.250Z,24.90
2022-08-05T14:20:20.534Z,24.90
2022-08-05T14:24:38.566Z,24.90
2022-08-05T14:28:52.095Z,24.60
2022-08-05T14:33:01.284Z,24.80
2022-08-05T14:37:13.391Z,24.70
2022-08-05T14:41:24.408Z,24.90
2022-08-05T14:45:33.082Z,24.90
2022-08-05T14:49:56.545Z,24.50
2022-08-05T14:54:28.328Z,24.70
2022-08-05T14:58:39.103Z,24.60
2022-08-05T15:02:56.783Z,24.50
2022-08-05T15:07:06.912Z,24.40
2022-08-05T15:11:15.700Z,24.40
2022-08-05T15:15:54.409Z,24.00
2022-08-05T15:19:55.278Z,24.20
2022-08-05T15:24:04.107Z,24.40
2022-08-05T15:28:14.669Z,24.50
2022-08-05T15:32:27.473Z,24.50
2022-08-05T15:36:37.694Z,24.10
2022-08-05T15:41:04.532Z,23.90
2022-08-05T15:45:16.181Z,24.10
2022-08-05T15:49:52.046Z,24.10
2022-08-05T15:53:55.278Z,24.10
2022-08-05T15:58:07.657Z,24.00
2022-08-05T16:02:19.806Z,24.10
2022-08-05T16:06:35.838Z,24.30
2022-08-05T16:10:45.621Z,24.40
2022-08-05T16:14:54.740Z,23.90
2022-08-05T16:19:03.641Z,23.40
2022-08-05T16:23:13.827Z,23.60
2022-08-05T16:27:32.289Z,23.90
2022-08-05T16:31:56.392Z,23.80
2022-08-05T16:36:07.243Z,23.90
2022-08-05T16:40:26.736Z,23.50
2022-08-05T16:44:38.131Z,23.30
2022-08-05T16:48:47.034Z,23.50
2022-08-05T16:52:56.463Z,23.00
2022-08-05T16:57:14.896Z,23.00
2022-08-05T17:01:53.150Z,23.40
2022-08-05T17:06:00.926Z,23.10
2022-08-05T17:10:10.648Z,23.00
2022-08-05T17:14:34.282Z,23.10
2022-08-05T17:18:44.513Z,22.90
2022-08-05T17:22:55.286Z,23.10
2022-08-05T17:27:05.527Z,22.80
2022-08-05T17:31:24.632Z,22.40
2022-08-05T17:36:07.686Z,22.40
2022-08-05T17:40:22.717Z,22.30
2022-08-05T17:44:33.169Z,22.30
2022-08-05T17:48:47.720Z,22.20
2022-08-05T17:53:01.463Z,22.00
2022-08-05T17:57:11.996Z,21.70
2022-08-05T18:01:22.341Z,21.50
2022-08-05T18:05:35.441Z,21.70
2022-08-05T18:09:59.925Z,21.70
2022-08-05T18:14:13.173Z,21.60
2022-08-05T18:18:23.116Z,21.40
2022-08-05T18:22:54.220Z,21.30
2022-08-05T18:27:04.269Z,21.00
2022-08-05T18:31:22.791Z,20.90
2022-08-05T18:36:00.960Z,20.80
2022-08-05T18:41:50.774Z,20.70
2022-08-05T18:44:35.052Z,20.70
2022-08-05T18:49:17.680Z,20.40
2022-08-05T18:53:26.404Z,20.20
2022-08-05T18:57:43.670Z,20.10
2022-08-05T19:02:02.369Z,19.90
2022-08-05T19:06:21.600Z,19.80
2022-08-05T19:10:31.696Z,19.60
2022-08-05T19:15:00.934Z,19.40
2022-08-05T19:19:11.275Z,19.20
2022-08-05T19:24:04.325Z,19.10
2022-08-05T19:27:51.156Z,19.00
2022-08-05T19:32:02.852Z,18.80
2022-08-05T19:36:15.004Z,18.70
2022-08-05T19:40:24.319Z,18.60
2022-08-05T19:44:44.467Z,18.60
2022-08-05T19:48:55.959Z,18.40
2022-08-05T19:53:09.469Z,18.30
2022-08-05T19:57:19.527Z,18.20
2022-08-05T20:01:48.260Z,18.00
2022-08-05T20:05:58.398Z,18.00
2022-08-05T20:10:22.454Z,17.90
2022-08-05T20:14:34.649Z,17.80
2022-08-05T20:18:43.476Z,17.70
2022-08-05T20:22:55.592Z,17.60
2022-08-05T20:27:11.231Z,17.50
2022-08-05T20:31:28.265Z,17.40
2022-08-05T20:35:45.995Z,17.30
2022-08-05T20:39:56.618Z,17.20
2022-08-05T20:44:17.736Z,17.10
2022-08-05T20:48:28.510Z,17.00
2022-08-05T20:52:38.989Z,16.80
2022-08-05T20:56:51.843Z,16.70
2022-08-05T21:01:00.692Z,16.70
2022-08-05T21:05:12.195Z,16.70
2022-08-05T21:09:22.006Z,16.50
2022-08-05T21:13:48.165Z,16.50
2022-08-05T21:18:03.525Z,16.40
2022-08-05T21:22:12.735Z,16.30
2022-08-05T21:26:26.317Z,16.30
2022-08-05T21:30:41.217Z,16.20
2022-08-05T21:34:55.735Z,16.00
2022-08-05T21:39:16.871Z,16.00
2022-08-05T21:43:41.755Z,15.90
2022-08-05T21:47:56.649Z,15.90
2022-08-05T21:52:22.856Z,15.80
2022-08-05T21:56:36.351Z,15.80
2022-08-05T22:00:53.572Z,15.70
2022-08-05T22:05:04.328Z,15.60
2022-08-05T22:09:15.363Z,15.40
2022-08-05T22:14:06.569Z,15.40
2022-08-05T22:17:59.946Z,15.30
2022-08-05T22:22:10.566Z,15.20
2022-08-05T22:26:36.696Z,15.20
2022-08-05T22:30:56.835Z,15.20
2022-08-05T22:35:06.584Z,15.10
2022-08-05T22:39:21.592Z,15.10
2022-08-05T22:43:36.920Z,15.00
2022-08-05T22:47:49.802Z,14.90
2022-08-05T22:52:07.650Z,14.90
2022-08-05T22:56:30.279Z,14.90
2022-08-05T23:00:39.982Z,14.90
2022-08-05T23:04:51.524Z,14.90
2022-08-05T23:09:27.287Z,14.90
2022-08-05T23:13:31.451Z,14.90
2022-08-05T23:18:00.824Z,14.90
2022-08-05T23:22:11.347Z,14.90
2022-08-05T23:26:21.343Z,14.80
2022-08-05T23:30:32.046Z,14.80
2022-08-05T23:34:48.486Z,14.70
2022-08-05T23:38:57.296Z,14.80
2022-08-05T23:43:11.544Z,14.70
2022-08-05T23:47:35.049Z,14.60
2022-08-05T23:52:14.174Z,14.60
2022-08-05T23:56:27.194Z,14.60
